Time;durP1;ratioP1;P1;durP2;ratioP2;P2;SDS_P1;SDS_P2;PMS_P1;PMS_P2;Temp;Humidity;BMP_temperature;BMP_pressure;BME280_temperature;BME280_humidity;BME280_pressure;Samples;Min_cycle;Max_cycle;Signal;HPM_P1;HPM_P2
2023/07/06 00:01:05;;;;;;;0.10;0.10;;;;;;;;;;5073193;28;20111;-59
2023/07/06 00:03:32;;;;;;;0.00;0.00;;;;;;;;;;5076653;28;20138;-59
2023/07/06 00:05:59;;;;;;;0.10;0.10;;;;;;;;;;5078875;28;20060;-59
2023/07/06 00:08:27;;;;;;;0.08;0.08;;;;;;;;;;5077220;28;20783;-59
2023/07/06 00:10:55;;;;;;;0.00;0.00;;;;;;;;;;5073940;28;20406;-58
2023/07/06 00:13:23;;;;;;;0.08;0.08;;;;;;;;;;5075143;28;20540;-59
2023/07/06 00:15:51;;;;;;;0.08;0.08;;;;;;;;;;5073622;28;20119;-58
2023/07/06 00:18:20;;;;;;;0.10;0.10;;;;;;;;;;5075625;28;20048;-59
2023/07/06 00:20:49;;;;;;;0.10;0.10;;;;;;;;;;5083185;28;20065;-58
2023/07/06 00:23:16;;;;;;;0.10;0.10;;;;;;;;;;5074033;28;20400;-59
2023/07/06 00:25:43;;;;;;;0.00;0.00;;;;;;;;;;5076129;28;20044;-58
2023/07/06 00:28:12;;;;;;;0.20;0.20;;;;;;;;;;5078409;28;20493;-58
2023/07/06 00:30:53;;;;;;;0.10;0.10;;;;;;;;;;5077554;28;20036;-59
2023/07/06 00:33:22;;;;;;;0.10;0.10;;;;;;;;;;5073475;28;20458;-58
2023/07/06 00:35:49;;;;;;;0.10;0.10;;;;;;;;;;5082025;28;20128;-58
2023/07/06 00:38:17;;;;;;;0.10;0.10;;;;;;;;;;5076822;28;20067;-58
2023/07/06 00:40:45;;;;;;;0.17;0.17;;;;;;;;;;5081871;28;20047;-58
2023/07/06 00:43:17;;;;;;;0.10;0.10;;;;;;;;;;5076293;28;20106;-59
2023/07/06 00:45:44;;;;;;;0.10;0.10;;;;;;;;;;5073974;28;20040;-58
2023/07/06 00:48:17;;;;;;;0.10;0.10;;;;;;;;;;5075574;28;20521;-58
2023/07/06 00:50:44;;;;;;;0.10;0.10;;;;;;;;;;5075517;28;20501;-59
2023/07/06 00:53:13;;;;;;;0.00;0.00;;;;;;;;;;5073728;28;20075;-58
2023/07/06 00:55:41;;;;;;;0.10;0.10;;;;;;;;;;5081417;28;20040;-58
2023/07/06 00:58:09;;;;;;;0.10;0.10;;;;;;;;;;5072736;28;20433;-58
2023/07/06 01:00:38;;;;;;;0.10;0.10;;;;;;;;;;5077336;28;20132;-58
2023/07/06 01:03:05;;;;;;;0.10;0.10;;;;;;;;;;5077758;28;20052;-59
2023/07/06 01:05:32;;;;;;;0.10;0.10;;;;;;;;;;5082785;28;20055;-58
2023/07/06 01:08:01;;;;;;;0.20;0.20;;;;;;;;;;5074676;28;20044;-59
2023/07/06 01:10:28;;;;;;;0.10;0.10;;;;;;;;;;5079290;28;20143;-58
2023/07/06 01:12:55;;;;;;;0.03;0.03;;;;;;;;;;5076540;28;20139;-58
2023/07/06 01:15:22;;;;;;;0.10;0.10;;;;;;;;;;5074160;28;20491;-59
2023/07/06 01:17:54;;;;;;;0.10;0.10;;;;;;;;;;5077344;28;20039;-58
2023/07/06 01:20:25;;;;;;;0.20;0.20;;;;;;;;;;5076581;28;20048;-58
2023/07/06 01:22:58;;;;;;;0.10;0.10;;;;;;;;;;5084278;28;20101;-58
2023/07/06 01:25:28;;;;;;;0.10;0.10;;;;;;;;;;5075981;28;20059;-58
2023/07/06 01:27:55;;;;;;;;;;;;;;;;;;5073471;28;20037;-59
2023/07/06 01:30:45;;;;;;;0.20;0.20;;;;;;;;;;5075920;28;19924;-59
2023/07/06 01:33:12;;;;;;;;;;;;;;;;;;5069746;28;20051;-58
2023/07/06 01:35:43;;;;;;;0.10;0.10;;;;;;;;;;5079812;28;19920;-59
2023/07/06 01:38:10;;;;;;;0.10;0.10;;;;;;;;;;5077599;28;20068;-59
2023/07/06 01:40:37;;;;;;;0.03;0.03;;;;;;;;;;5075083;28;20440;-58
2023/07/06 01:43:05;;;;;;;0.20;0.20;;;;;;;;;;5072950;28;20044;-58
2023/07/06 01:45:32;;;;;;;0.10;0.10;;;;;;;;;;5079637;28;20044;-58
2023/07/06 01:48:00;;;;;;;0.10;0.10;;;;;;;;;;5075018;28;20036;-58
2023/07/06 01:50:28;;;;;;;0.20;0.20;;;;;;;;;;5076964;28;20491;-58
2023/07/06 01:53:05;;;;;;;0.10;0.10;;;;;;;;;;5074070;28;20048;-58
2023/07/06 01:55:35;;;;;;;0.17;0.17;;;;;;;;;;5073614;28;20105;-58
2023/07/06 01:58:05;;;;;;;0.15;0.15;;;;;;;;;;5068897;28;20584;-59
2023/07/06 02:00:32;;;;;;;0.10;0.10;;;;;;;;;;5088773;28;20127;-58
2023/07/06 02:03:00;;;;;;;0.10;0.10;;;;;;;;;;5074060;28;20307;-58
2023/07/06 02:05:29;;;;;;;0.10;0.10;;;;;;;;;;5074857;28;20063;-58
2023/07/06 02:07:56;;;;;;;0.20;0.20;;;;;;;;;;5080235;28;20055;-58
2023/07/06 02:10:24;;;;;;;0.20;0.20;;;;;;;;;;5082617;28;20082;-58
2023/07/06 02:12:51;;;;;;;0.10;0.10;;;;;;;;;;5069966;28;20051;-59
2023/07/06 02:15:19;;;;;;;0.10;0.10;;;;;;;;;;5078118;28;20028;-58
2023/07/06 02:17:46;;;;;;;0.10;0.10;;;;;;;;;;5071510;28;20044;-58
2023/07/06 02:20:15;;;;;;;0.20;0.20;;;;;;;;;;5068022;28;20044;-58
2023/07/06 02:22:42;;;;;;;0.10;0.10;;;;;;;;;;5076686;28;20131;-59
2023/07/06 02:25:09;;;;;;;0.10;0.10;;;;;;;;;;5073800;28;20132;-58
2023/07/06 02:27:38;;;;;;;0.20;0.20;;;;;;;;;;5082642;28;20396;-58
2023/07/06 02:30:05;;;;;;;0.20;0.20;;;;;;;;;;5071228;28;20094;-59
2023/07/06 02:32:33;;;;;;;0.10;0.10;;;;;;;;;;5080580;28;20056;-58
2023/07/06 02:35:01;;;;;;;0.10;0.10;;;;;;;;;;5073996;28;20501;-58
2023/07/06 02:37:29;;;;;;;0.20;0.20;;;;;;;;;;5074289;28;20040;-58
2023/07/06 02:39:58;;;;;;;0.20;0.20;;;;;;;;;;5075599;28;20052;-59
2023/07/06 02:42:25;;;;;;;0.10;0.10;;;;;;;;;;5078435;28;20052;-58
2023/07/06 02:44:57;;;;;;;0.20;0.20;;;;;;;;;;5077947;28;20088;-58
2023/07/06 02:47:24;;;;;;;0.20;0.20;;;;;;;;;;5082581;28;20052;-59
2023/07/06 02:49:51;;;;;;;0.20;0.20;;;;;;;;;;5077169;28;20044;-59
2023/07/06 02:52:18;;;;;;;0.10;0.10;;;;;;;;;;5075233;28;20065;-59
2023/07/06 02:54:45;;;;;;;0.13;0.13;;;;;;;;;;5083449;28;20044;-58
2023/07/06 02:57:12;;;;;;;0.13;0.13;;;;;;;;;;5075615;28;20097;-58
2023/07/06 02:59:39;;;;;;;0.13;0.13;;;;;;;;;;5075002;28;20069;-58
2023/07/06 03:02:08;;;;;;;0.20;0.20;;;;;;;;;;5081087;28;20044;-58
2023/07/06 03:04:36;;;;;;;0.20;0.20;;;;;;;;;;5078857;28;20048;-59
2023/07/06 03:07:04;;;;;;;0.10;0.10;;;;;;;;;;5075201;28;20069;-58
2023/07/06 03:09:31;;;;;;;0.20;0.20;;;;;;;;;;5068585;28;20035;-58
2023/07/06 03:11:58;;;;;;;0.20;0.20;;;;;;;;;;5076794;28;20036;-58
2023/07/06 03:14:25;;;;;;;0.28;0.28;;;;;;;;;;5096553;28;20145;-58
2023/07/06 03:16:53;;;;;;;0.20;0.20;;;;;;;;;;5078481;28;20088;-58
2023/07/06 03:19:22;;;;;;;0.20;0.20;;;;;;;;;;5076732;28;20067;-58
2023/07/06 03:21:49;;;;;;;0.20;0.20;;;;;;;;;;5083109;28;20051;-58
2023/07/06 03:24:16;;;;;;;0.17;0.17;;;;;;;;;;5078722;28;20140;-58
2023/07/06 03:26:43;;;;;;;0.20;0.20;;;;;;;;;;5081357;28;20485;-58
2023/07/06 03:29:12;;;;;;;0.20;0.20;;;;;;;;;;5077432;28;20037;-58
2023/07/06 03:31:39;;;;;;;0.30;0.30;;;;;;;;;;5075089;28;20040;-58
2023/07/06 03:34:07;;;;;;;0.25;0.25;;;;;;;;;;5072196;28;20131;-58
2023/07/06 03:36:35;;;;;;;0.20;0.20;;;;;;;;;;5072988;28;20051;-58
2023/07/06 03:39:02;;;;;;;0.20;0.20;;;;;;;;;;5068975;28;20051;-58
2023/07/06 03:41:30;;;;;;;0.20;0.20;;;;;;;;;;5080119;28;20071;-58
2023/07/06 03:43:58;;;;;;;0.30;0.30;;;;;;;;;;5081315;28;20506;-59
2023/07/06 03:46:25;;;;;;;0.20;0.20;;;;;;;;;;5078376;28;20041;-58
2023/07/06 03:48:53;;;;;;;0.20;0.20;;;;;;;;;;5078043;28;20570;-58
2023/07/06 03:51:20;;;;;;;0.20;0.20;;;;;;;;;;5072941;28;20046;-59
2023/07/06 03:53:48;;;;;;;0.20;0.20;;;;;;;;;;5080299;28;20699;-58
2023/07/06 03:56:16;;;;;;;0.20;0.20;;;;;;;;;;5084302;28;20363;-58
2023/07/06 03:58:44;;;;;;;0.20;0.20;;;;;;;;;;5079199;28;20056;-59
2023/07/06 04:01:12;;;;;;;0.20;0.20;;;;;;;;;;5078574;28;20036;-59
2023/07/06 04:03:39;;;;;;;0.25;0.25;;;;;;;;;;5077222;28;20044;-59
2023/07/06 04:06:06;;;;;;;0.20;0.20;;;;;;;;;;5079153;28;20044;-59
2023/07/06 04:08:36;;;;;;;0.20;0.20;;;;;;;;;;5075127;28;20052;-58
2023/07/06 04:11:05;;;;;;;0.10;0.10;;;;;;;;;;5076709;28;20040;-59
2023/07/06 04:13:34;;;;;;;0.10;0.10;;;;;;;;;;5076637;28;20044;-59
2023/07/06 04:16:01;;;;;;;0.00;0.00;;;;;;;;;;5077253;28;20047;-59
2023/07/06 04:18:28;;;;;;;0.10;0.10;;;;;;;;;;5070938;28;20052;-58
2023/07/06 04:20:55;;;;;;;0.10;0.10;;;;;;;;;;5075505;28;20040;-58
2023/07/06 04:23:22;;;;;;;0.10;0.10;;;;;;;;;;5079141;28;20084;-59
2023/07/06 04:25:49;;;;;;;0.20;0.20;;;;;;;;;;5072555;28;20044;-59
2023/07/06 04:28:17;;;;;;;0.20;0.20;;;;;;;;;;5073557;28;20043;-59
2023/07/06 04:30:46;;;;;;;0.20;0.20;;;;;;;;;;5078897;28;20115;-59
2023/07/06 04:33:14;;;;;;;0.20;0.20;;;;;;;;;;5079513;28;20036;-57
2023/07/06 04:35:42;;;;;;;0.10;0.10;;;;;;;;;;5081653;28;20123;-58
2023/07/06 04:38:10;;;;;;;0.20;0.20;;;;;;;;;;5075973;28;20272;-58
2023/07/06 04:40:38;;;;;;;0.10;0.10;;;;;;;;;;5073260;28;20037;-58
2023/07/06 04:43:05;;;;;;;0.20;0.20;;;;;;;;;;5084309;28;20042;-59
2023/07/06 04:45:33;;;;;;;0.20;0.20;;;;;;;;;;5076224;28;20098;-58
2023/07/06 04:48:00;;;;;;;0.20;0.20;;;;;;;;;;5074929;28;20429;-59
2023/07/06 04:50:27;;;;;;;0.10;0.10;;;;;;;;;;5072534;28;20063;-59
2023/07/06 04:52:55;;;;;;;0.10;0.10;;;;;;;;;;5075358;28;20106;-57
2023/07/06 04:55:24;;;;;;;0.00;0.00;;;;;;;;;;5077533;28;20048;-58
2023/07/06 04:57:52;;;;;;;0.10;0.10;;;;;;;;;;5076319;28;20036;-58
2023/07/06 05:00:24;;;;;;;0.10;0.10;;;;;;;;;;5077642;28;20445;-58
2023/07/06 05:02:53;;;;;;;0.10;0.10;;;;;;;;;;5075727;28;20434;-59
2023/07/06 05:05:21;;;;;;;0.10;0.10;;;;;;;;;;5078825;28;20051;-59
2023/07/06 05:07:49;;;;;;;0.10;0.10;;;;;;;;;;5076457;28;20037;-59
2023/07/06 05:10:22;;;;;;;0.10;0.10;;;;;;;;;;5077874;28;20175;-59
2023/07/06 05:12:51;;;;;;;0.10;0.10;;;;;;;;;;5068680;28;20104;-59
2023/07/06 05:15:19;;;;;;;0.10;0.10;;;;;;;;;;5072589;28;20179;-59
2023/07/06 05:17:46;;;;;;;0.10;0.10;;;;;;;;;;5082578;28;20036;-59
2023/07/06 05:20:20;;;;;;;0.03;0.03;;;;;;;;;;5070791;28;20071;-59
2023/07/06 05:22:48;;;;;;;0.10;0.10;;;;;;;;;;5074844;28;20545;-59
2023/07/06 05:25:16;;;;;;;0.10;0.10;;;;;;;;;;5079070;28;20499;-59
2023/07/06 05:27:44;;;;;;;0.10;0.10;;;;;;;;;;5073450;28;20059;-59
2023/07/06 05:30:11;;;;;;;0.08;0.08;;;;;;;;;;5073456;28;20033;-60
2023/07/06 05:32:39;;;;;;;0.10;0.10;;;;;;;;;;5075374;28;20048;-59
2023/07/06 05:35:07;;;;;;;0.03;0.03;;;;;;;;;;5075372;28;20060;-60
2023/07/06 05:37:35;;;;;;;0.10;0.10;;;;;;;;;;5069112;28;20040;-58
2023/07/06 05:40:04;;;;;;;0.10;0.10;;;;;;;;;;5079272;28;20226;-59
2023/07/06 05:42:34;;;;;;;0.10;0.10;;;;;;;;;;5079960;28;20068;-58
2023/07/06 05:45:01;;;;;;;0.10;0.10;;;;;;;;;;5071776;28;20308;-58
2023/07/06 05:47:28;;;;;;;0.00;0.00;;;;;;;;;;5075119;28;20131;-59
2023/07/06 05:49:55;;;;;;;0.10;0.10;;;;;;;;;;5074747;28;20063;-58
2023/07/06 05:52:22;;;;;;;0.10;0.10;;;;;;;;;;5076413;28;20058;-59
2023/07/06 05:54:51;;;;;;;0.10;0.10;;;;;;;;;;5076247;28;20072;-59
2023/07/06 05:57:19;;;;;;;0.10;0.10;;;;;;;;;;5072401;28;20051;-59
2023/07/06 05:59:47;;;;;;;0.10;0.10;;;;;;;;;;5077250;28;20129;-59
2023/07/06 06:02:16;;;;;;;0.10;0.10;;;;;;;;;;5074989;28;20133;-59
2023/07/06 06:04:43;;;;;;;0.10;0.10;;;;;;;;;;5081811;28;20055;-59
2023/07/06 06:07:10;;;;;;;0.03;0.03;;;;;;;;;;5073174;28;20044;-59
2023/07/06 06:09:37;;;;;;;0.00;0.00;;;;;;;;;;5073847;28;20113;-59
2023/07/06 06:12:06;;;;;;;0.20;0.20;;;;;;;;;;5077025;28;20446;-59
2023/07/06 06:14:34;;;;;;;0.10;0.10;;;;;;;;;;5078521;28;20433;-59
2023/07/06 06:17:01;;;;;;;0.10;0.10;;;;;;;;;;5078144;28;20532;-59
2023/07/06 06:19:28;;;;;;;0.10;0.10;;;;;;;;;;5080612;28;20470;-59
2023/07/06 06:21:55;;;;;;;0.10;0.10;;;;;;;;;;5078370;28;20044;-59
2023/07/06 06:24:22;;;;;;;0.10;0.10;;;;;;;;;;5081468;28;20052;-59
2023/07/06 06:26:50;;;;;;;0.10;0.10;;;;;;;;;;5082597;28;20044;-59
2023/07/06 06:29:19;;;;;;;0.10;0.10;;;;;;;;;;5077299;28;20505;-59
2023/07/06 06:31:46;;;;;;;0.20;0.20;;;;;;;;;;5076658;28;20118;-59
2023/07/06 06:34:13;;;;;;;0.10;0.10;;;;;;;;;;5074296;28;20052;-59
2023/07/06 06:36:41;;;;;;;0.10;0.10;;;;;;;;;;5082161;28;20040;-59
2023/07/06 06:39:09;;;;;;;0.10;0.10;;;;;;;;;;5078285;28;20554;-59
2023/07/06 06:41:39;;;;;;;0.10;0.10;;;;;;;;;;5079348;28;20094;-59
2023/07/06 06:44:07;;;;;;;0.10;0.10;;;;;;;;;;5080334;28;20040;-59
2023/07/06 06:46:36;;;;;;;0.10;0.10;;;;;;;;;;5073322;28;20032;-59
2023/07/06 06:49:02;;;;;;;0.00;0.00;;;;;;;;;;5083466;28;20047;-59
2023/07/06 06:51:29;;;;;;;0.10;0.10;;;;;;;;;;5078799;28;20052;-59
2023/07/06 06:53:56;;;;;;;0.30;0.30;;;;;;;;;;5075819;28;20094;-59
2023/07/06 06:56:24;;;;;;;0.08;0.08;;;;;;;;;;5080262;28;20044;-59
2023/07/06 06:58:52;;;;;;;0.10;0.10;;;;;;;;;;5082055;28;20109;-59
2023/07/06 07:01:20;;;;;;;0.00;0.00;;;;;;;;;;5081488;28;20418;-59
2023/07/06 07:03:48;;;;;;;0.00;0.00;;;;;;;;;;5078737;28;20147;-59
2023/07/06 07:06:17;;;;;;;0.10;0.10;;;;;;;;;;5082768;28;20297;-59
2023/07/06 07:08:44;;;;;;;0.00;0.00;;;;;;;;;;5077540;28;20513;-59
2023/07/06 07:11:11;;;;;;;0.00;0.00;;;;;;;;;;5074897;28;20044;-59
2023/07/06 07:13:38;;;;;;;0.00;0.00;;;;;;;;;;5077568;28;20040;-59
2023/07/06 07:16:06;;;;;;;0.00;0.00;;;;;;;;;;5077558;28;20043;-59
2023/07/06 07:18:33;;;;;;;0.00;0.00;;;;;;;;;;5079236;28;20051;-59
2023/07/06 07:21:02;;;;;;;0.00;0.00;;;;;;;;;;5080557;28;20094;-59
2023/07/06 07:23:35;;;;;;;0.00;0.00;;;;;;;;;;5077308;28;20453;-59
2023/07/06 07:26:05;;;;;;;0.00;0.00;;;;;;;;;;5076967;28;20171;-58
2023/07/06 07:28:33;;;;;;;0.00;0.00;;;;;;;;;;5073271;28;20103;-59
2023/07/06 07:31:01;;;;;;;0.00;0.00;;;;;;;;;;5080194;28;20128;-59
2023/07/06 07:33:28;;;;;;;0.00;0.00;;;;;;;;;;5073802;28;20040;-58
2023/07/06 07:35:57;;;;;;;0.00;0.00;;;;;;;;;;5067713;28;20048;-58
2023/07/06 07:38:26;;;;;;;0.00;0.00;;;;;;;;;;5081383;28;20048;-59
2023/07/06 07:40:56;;;;;;;0.00;0.00;;;;;;;;;;5076376;28;20486;-59
2023/07/06 07:43:25;;;;;;;0.00;0.00;;;;;;;;;;5075788;28;20044;-59
2023/07/06 07:45:54;;;;;;;0.00;0.00;;;;;;;;;;5077137;28;20098;-59
2023/07/06 07:48:23;;;;;;;0.00;0.00;;;;;;;;;;5078854;28;20052;-60
2023/07/06 07:50:50;;;;;;;0.00;0.00;;;;;;;;;;5077088;28;20054;-59
2023/07/06 07:53:18;;;;;;;0.00;0.00;;;;;;;;;;5077280;28;20044;-59
2023/07/06 07:55:47;;;;;;;0.00;0.00;;;;;;;;;;5084210;28;20048;-60
2023/07/06 07:58:14;;;;;;;0.00;0.00;;;;;;;;;;5078891;28;20098;-59
2023/07/06 08:00:42;;;;;;;0.00;0.00;;;;;;;;;;5076119;28;20056;-59
2023/07/06 08:03:09;;;;;;;0.08;0.08;;;;;;;;;;5072287;28;20044;-59
2023/07/06 08:05:37;;;;;;;0.00;0.00;;;;;;;;;;5076251;28;20045;-59
2023/07/06 08:08:05;;;;;;;0.00;0.00;;;;;;;;;;5077354;28;20279;-58
2023/07/06 08:10:35;;;;;;;0.00;0.00;;;;;;;;;;5075448;28;20131;-59
2023/07/06 08:13:05;;;;;;;0.00;0.00;;;;;;;;;;5075386;28;20139;-59
2023/07/06 08:15:33;;;;;;;0.00;0.00;;;;;;;;;;5075048;28;20036;-59
2023/07/06 08:18:00;;;;;;;0.00;0.00;;;;;;;;;;5077129;28;20036;-59
2023/07/06 08:20:28;;;;;;;0.00;0.00;;;;;;;;;;5079887;28;20053;-58
2023/07/06 08:22:57;;;;;;;0.00;0.00;;;;;;;;;;5078091;28;20368;-58
2023/07/06 08:25:25;;;;;;;0.00;0.00;;;;;;;;;;5079418;28;20336;-58
2023/07/06 08:27:53;;;;;;;0.00;0.00;;;;;;;;;;5078245;28;20506;-58
2023/07/06 08:30:22;;;;;;;0.00;0.00;;;;;;;;;;5079824;28;20044;-59
2023/07/06 08:32:49;;;;;;;0.00;0.00;;;;;;;;;;5082455;28;20036;-59
2023/07/06 08:35:17;;;;;;;0.00;0.00;;;;;;;;;;5076609;28;20048;-58
2023/07/06 08:37:44;;;;;;;0.00;0.00;;;;;;;;;;5079101;28;20154;-58
2023/07/06 08:40:12;;;;;;;0.00;0.00;;;;;;;;;;5082187;28;20042;-58
2023/07/06 08:42:39;;;;;;;0.00;0.00;;;;;;;;;;5081577;28;20054;-59
2023/07/06 08:45:06;;;;;;;0.00;0.00;;;;;;;;;;5072916;28;20413;-59
2023/07/06 08:47:35;;;;;;;0.00;0.00;;;;;;;;;;5082284;28;20095;-59
2023/07/06 08:50:03;;;;;;;0.00;0.00;;;;;;;;;;5073435;28;20105;-59
2023/07/06 08:52:31;;;;;;;0.00;0.00;;;;;;;;;;5076798;28;20452;-58
2023/07/06 08:54:58;;;;;;;0.00;0.00;;;;;;;;;;5075979;28;20040;-59
2023/07/06 08:57:25;;;;;;;0.00;0.00;;;;;;;;;;5078571;28;20044;-58
2023/07/06 08:59:52;;;;;;;0.00;0.00;;;;;;;;;;5082444;28;20399;-59
2023/07/06 09:02:20;;;;;;;0.00;0.00;;;;;;;;;;5081847;28;20412;-59
2023/07/06 09:04:50;;;;;;;0.00;0.00;;;;;;;;;;5074943;28;20048;-58
2023/07/06 09:07:21;;;;;;;0.00;0.00;;;;;;;;;;5075022;28;20124;-59
2023/07/06 09:09:48;;;;;;;0.00;0.00;;;;;;;;;;5081457;28;20105;-59
2023/07/06 09:12:18;;;;;;;0.00;0.00;;;;;;;;;;5074301;28;20046;-59
2023/07/06 09:14:47;;;;;;;0.00;0.00;;;;;;;;;;5075723;28;20051;-59
2023/07/06 09:17:16;;;;;;;0.00;0.00;;;;;;;;;;5078196;28;20159;-59
2023/07/06 09:19:43;;;;;;;0.00;0.00;;;;;;;;;;5078626;28;20047;-59
2023/07/06 09:22:12;;;;;;;0.00;0.00;;;;;;;;;;5076922;28;20106;-58
2023/07/06 09:24:45;;;;;;;0.00;0.00;;;;;;;;;;5073777;28;20113;-59
2023/07/06 09:27:16;;;;;;;0.00;0.00;;;;;;;;;;5078500;28;20067;-59
2023/07/06 09:29:44;;;;;;;0.00;0.00;;;;;;;;;;5072666;28;20052;-59
2023/07/06 09:32:14;;;;;;;0.00;0.00;;;;;;;;;;5069085;28;20040;-59
2023/07/06 09:34:44;;;;;;;0.00;0.00;;;;;;;;;;5081416;28;20138;-59
2023/07/06 09:37:14;;;;;;;0.00;0.00;;;;;;;;;;5071578;28;20567;-59
2023/07/06 09:39:41;;;;;;;0.00;0.00;;;;;;;;;;5075706;28;20036;-58
2023/07/06 09:42:10;;;;;;;0.00;0.00;;;;;;;;;;5069199;28;20036;-58
2023/07/06 09:44:38;;;;;;;0.00;0.00;;;;;;;;;;5078323;28;20325;-59
2023/07/06 09:47:05;;;;;;;0.00;0.00;;;;;;;;;;5077866;28;20101;-59
2023/07/06 09:49:33;;;;;;;0.00;0.00;;;;;;;;;;5077223;28;20145;-58
2023/07/06 09:52:01;;;;;;;0.00;0.00;;;;;;;;;;5076822;28;20043;-58
2023/07/06 09:54:31;;;;;;;0.00;0.00;;;;;;;;;;5079468;28;20049;-58
2023/07/06 09:56:59;;;;;;;0.00;0.00;;;;;;;;;;5073858;28;20055;-59
2023/07/06 09:59:26;;;;;;;0.00;0.00;;;;;;;;;;5075097;28;20058;-59
2023/07/06 10:01:56;;;;;;;0.00;0.00;;;;;;;;;;5075892;28;20564;-59
2023/07/06 10:04:33;;;;;;;0.00;0.00;;;;;;;;;;5077890;28;20048;-59
2023/07/06 10:07:05;;;;;;;0.00;0.00;;;;;;;;;;5072068;28;20272;-59
2023/07/06 10:09:35;;;;;;;0.00;0.00;;;;;;;;;;5071304;28;20062;-58
2023/07/06 10:12:06;;;;;;;;;;;;;;;;;;5079521;28;20036;-59
2023/07/06 10:14:34;;;;;;;0.00;0.00;;;;;;;;;;5075706;28;19928;-59
2023/07/06 10:17:06;;;;;;;0.00;0.00;;;;;;;;;;5074152;28;20040;-59
2023/07/06 10:19:36;;;;;;;0.00;0.00;;;;;;;;;;5073974;28;20040;-59
2023/07/06 10:22:09;;;;;;;0.00;0.00;;;;;;;;;;5076566;28;20505;-59
2023/07/06 10:24:40;;;;;;;0.00;0.00;;;;;;;;;;5077089;28;20602;-59
2023/07/06 10:27:09;;;;;;;0.00;0.00;;;;;;;;;;5072960;28;20051;-59
2023/07/06 10:29:37;;;;;;;0.00;0.00;;;;;;;;;;5078786;28;20056;-59
2023/07/06 10:32:06;;;;;;;0.00;0.00;;;;;;;;;;5074000;28;20493;-59
2023/07/06 10:34:34;;;;;;;0.00;0.00;;;;;;;;;;5075103;28;20147;-58
2023/07/06 10:37:01;;;;;;;0.00;0.00;;;;;;;;;;5080298;28;20044;-59
2023/07/06 10:39:55;;;;;;;0.00;0.00;;;;;;;;;;5071888;28;20407;-59
2023/07/06 10:42:25;;;;;;;0.10;0.00;;;;;;;;;;5043115;28;20432;-59
2023/07/06 10:44:52;;;;;;;0.00;0.00;;;;;;;;;;5073285;28;20418;-59
2023/07/06 10:47:34;;;;;;;0.00;0.00;;;;;;;;;;5075929;28;20141;-59
2023/07/06 10:50:13;;;;;;;0.00;0.00;;;;;;;;;;5073785;28;20048;-59
2023/07/06 10:52:40;;;;;;;0.00;0.00;;;;;;;;;;5079806;28;20414;-59
2023/07/06 10:55:10;;;;;;;0.00;0.00;;;;;;;;;;5075868;28;20040;-59
2023/07/06 10:57:39;;;;;;;0.00;0.00;;;;;;;;;;5074381;28;20144;-59
2023/07/06 11:00:06;;;;;;;0.00;0.00;;;;;;;;;;5073345;28;20570;-59
2023/07/06 11:02:36;;;;;;;0.00;0.00;;;;;;;;;;5086152;28;20071;-59
2023/07/06 11:05:08;;;;;;;0.00;0.00;;;;;;;;;;5076396;28;20064;-59
2023/07/06 11:07:41;;;;;;;0.00;0.00;;;;;;;;;;5079178;28;20048;-59
2023/07/06 11:10:31;;;;;;;0.00;0.00;;;;;;;;;;5084275;28;20127;-59
2023/07/06 11:13:14;;;;;;;0.00;0.00;;;;;;;;;;5074780;28;20049;-59
2023/07/06 11:15:51;;;;;;;0.00;0.00;;;;;;;;;;5075885;28;20060;-59
2023/07/06 11:18:18;;;;;;;0.10;0.00;;;;;;;;;;5081936;28;20510;-59
2023/07/06 11:20:45;;;;;;;0.00;0.00;;;;;;;;;;5080203;28;20076;-58
2023/07/06 11:23:12;;;;;;;0.00;0.00;;;;;;;;;;5085183;28;20047;-58
2023/07/06 11:25:40;;;;;;;0.00;0.00;;;;;;;;;;5079628;28;20047;-59
2023/07/06 11:28:12;;;;;;;0.00;0.00;;;;;;;;;;5077689;28;20479;-59
2023/07/06 11:30:39;;;;;;;0.00;0.00;;;;;;;;;;5071020;28;20123;-59
2023/07/06 11:33:10;;;;;;;0.00;0.00;;;;;;;;;;5079101;28;20435;-60
2023/07/06 11:35:55;;;;;;;0.00;0.00;;;;;;;;;;5078401;28;20059;-59
2023/07/06 11:38:26;;;;;;;0.00;0.00;;;;;;;;;;5077467;28;20044;-59
2023/07/06 11:41:01;;;;;;;0.00;0.00;;;;;;;;;;5079036;28;20040;-59
2023/07/06 11:43:34;;;;;;;0.00;0.00;;;;;;;;;;5076011;28;20048;-59
2023/07/06 11:46:03;;;;;;;0.00;0.00;;;;;;;;;;5078115;28;20090;-59
2023/07/06 11:48:34;;;;;;;0.00;0.00;;;;;;;;;;5079304;28;20437;-59
2023/07/06 11:51:01;;;;;;;0.00;0.00;;;;;;;;;;5081359;28;20517;-59
2023/07/06 11:53:42;;;;;;;0.00;0.00;;;;;;;;;;5072580;28;20051;-59
2023/07/06 11:56:19;;;;;;;0.00;0.00;;;;;;;;;;5082462;28;20078;-59
2023/07/06 11:58:55;;;;;;;0.00;0.00;;;;;;;;;;5081115;28;20093;-58
2023/07/06 12:01:40;;;;;;;0.00;0.00;;;;;;;;;;5077056;28;20135;-59
2023/07/06 12:04:11;;;;;;;0.00;0.00;;;;;;;;;;5077338;28;20044;-59
2023/07/06 12:06:38;;;;;;;0.00;0.00;;;;;;;;;;5072831;28;20768;-59
2023/07/06 12:09:06;;;;;;;0.10;0.00;;;;;;;;;;5078185;28;20149;-59
2023/07/06 12:11:33;;;;;;;0.00;0.00;;;;;;;;;;5076612;28;20046;-59
2023/07/06 12:14:03;;;;;;;0.00;0.00;;;;;;;;;;5083931;28;20481;-59
2023/07/06 12:16:32;;;;;;;0.00;0.00;;;;;;;;;;5076037;28;20044;-59
2023/07/06 12:19:01;;;;;;;0.00;0.00;;;;;;;;;;5077251;28;20182;-59
2023/07/06 12:21:28;;;;;;;;;;;;;;;;;;5073449;28;20048;-59
2023/07/06 12:23:58;;;;;;;0.00;0.00;;;;;;;;;;5079655;28;19931;-59
2023/07/06 12:26:29;;;;;;;0.00;0.00;;;;;;;;;;5076025;28;20040;-58
2023/07/06 12:28:57;;;;;;;0.00;0.00;;;;;;;;;;5078730;28;20411;-59
2023/07/06 12:31:25;;;;;;;0.00;0.00;;;;;;;;;;5074012;28;20471;-59
2023/07/06 12:33:53;;;;;;;0.00;0.00;;;;;;;;;;5074694;28;20050;-59
2023/07/06 12:36:22;;;;;;;0.00;0.00;;;;;;;;;;5082534;28;20048;-59
2023/07/06 12:38:49;;;;;;;0.15;0.03;;;;;;;;;;5078356;28;20040;-59
2023/07/06 12:41:19;;;;;;;0.00;0.00;;;;;;;;;;5075218;28;20051;-59
2023/07/06 12:43:46;;;;;;;0.00;0.00;;;;;;;;;;5082451;28;20512;-59
2023/07/06 12:46:13;;;;;;;0.00;0.00;;;;;;;;;;5083091;28;20051;-59
2023/07/06 12:48:46;;;;;;;0.00;0.00;;;;;;;;;;5081833;28;20044;-59
2023/07/06 12:51:14;;;;;;;0.03;0.00;;;;;;;;;;5076361;28;20044;-59
2023/07/06 12:53:41;;;;;;;0.00;0.00;;;;;;;;;;5075656;28;20159;-59
2023/07/06 12:56:10;;;;;;;0.00;0.00;;;;;;;;;;5074625;28;20040;-59
2023/07/06 12:58:37;;;;;;;0.00;0.00;;;;;;;;;;5078983;28;20049;-59
2023/07/06 13:01:05;;;;;;;0.00;0.00;;;;;;;;;;5074755;28;20453;-58
2023/07/06 13:03:32;;;;;;;0.00;0.00;;;;;;;;;;5077478;28;20149;-58
2023/07/06 13:06:00;;;;;;;0.00;0.00;;;;;;;;;;5077157;28;20135;-59
2023/07/06 13:08:27;;;;;;;0.00;0.00;;;;;;;;;;5073618;28;20120;-59
2023/07/06 13:10:56;;;;;;;0.00;0.00;;;;;;;;;;5071913;28;20301;-59
2023/07/06 13:13:24;;;;;;;0.00;0.00;;;;;;;;;;5074188;28;20057;-59
2023/07/06 13:15:56;;;;;;;0.00;0.00;;;;;;;;;;5085512;28;20161;-59
2023/07/06 13:18:25;;;;;;;0.00;0.00;;;;;;;;;;5071332;28;20109;-59
2023/07/06 13:20:53;;;;;;;0.00;0.00;;;;;;;;;;5071292;28;20139;-59
2023/07/06 13:23:28;;;;;;;0.00;0.00;;;;;;;;;;5076477;28;20063;-59
2023/07/06 13:25:55;;;;;;;0.00;0.00;;;;;;;;;;5071705;28;20390;-59
2023/07/06 13:28:23;;;;;;;0.00;0.00;;;;;;;;;;5074099;28;20048;-58
2023/07/06 13:30:50;;;;;;;0.00;0.00;;;;;;;;;;5072743;28;20133;-59
2023/07/06 13:33:19;;;;;;;0.00;0.00;;;;;;;;;;5079693;28;20046;-59
2023/07/06 13:35:46;;;;;;;0.00;0.00;;;;;;;;;;5075139;28;20101;-59
2023/07/06 13:38:13;;;;;;;0.00;0.00;;;;;;;;;;5069085;28;20040;-59
2023/07/06 13:40:42;;;;;;;0.00;0.00;;;;;;;;;;5073294;28;20051;-58
2023/07/06 13:43:12;;;;;;;0.00;0.00;;;;;;;;;;5077260;28;20044;-59
2023/07/06 13:45:39;;;;;;;0.00;0.00;;;;;;;;;;5077874;28;20881;-58
2023/07/06 13:48:06;;;;;;;0.00;0.00;;;;;;;;;;5077323;28;20089;-59
2023/07/06 13:50:33;;;;;;;0.00;0.00;;;;;;;;;;5075685;28;20040;-59
2023/07/06 13:53:01;;;;;;;0.00;0.00;;;;;;;;;;5077055;28;20051;-59
2023/07/06 13:55:28;;;;;;;0.00;0.00;;;;;;;;;;5074098;28;20044;-59
2023/07/06 13:57:57;;;;;;;0.00;0.00;;;;;;;;;;5075959;28;20127;-59
2023/07/06 14:00:26;;;;;;;0.00;0.00;;;;;;;;;;5079454;28;20032;-59
2023/07/06 14:02:53;;;;;;;0.00;0.00;;;;;;;;;;5073610;28;20036;-58
2023/07/06 14:05:21;;;;;;;0.00;0.00;;;;;;;;;;5078762;28;20454;-59
2023/07/06 14:07:48;;;;;;;0.00;0.00;;;;;;;;;;5075712;28;20516;-59
2023/07/06 14:10:17;;;;;;;0.00;0.00;;;;;;;;;;5079634;28;20064;-59
2023/07/06 14:12:44;;;;;;;0.00;0.00;;;;;;;;;;5074612;28;20032;-58
2023/07/06 14:15:14;;;;;;;0.00;0.00;;;;;;;;;;5074912;28;20079;-58
2023/07/06 14:17:42;;;;;;;0.00;0.00;;;;;;;;;;5070224;28;20048;-59
2023/07/06 14:20:10;;;;;;;0.00;0.00;;;;;;;;;;5072913;28;20052;-59
2023/07/06 14:22:38;;;;;;;0.00;0.00;;;;;;;;;;5069763;28;20438;-59
2023/07/06 14:25:05;;;;;;;0.00;0.00;;;;;;;;;;5075996;28;20213;-58
2023/07/06 14:27:32;;;;;;;0.00;0.00;;;;;;;;;;5072109;28;20049;-58
2023/07/06 14:30:00;;;;;;;0.00;0.00;;;;;;;;;;5080187;28;20056;-59
2023/07/06 14:32:28;;;;;;;0.00;0.00;;;;;;;;;;5070514;28;20128;-59
2023/07/06 14:34:55;;;;;;;0.00;0.00;;;;;;;;;;5074100;28;20560;-58
2023/07/06 14:37:22;;;;;;;0.00;0.00;;;;;;;;;;5080259;28;20049;-58
2023/07/06 14:39:49;;;;;;;0.00;0.00;;;;;;;;;;5078553;28;20092;-58
2023/07/06 14:42:17;;;;;;;0.00;0.00;;;;;;;;;;5076058;28;20044;-59
2023/07/06 14:44:45;;;;;;;0.00;0.00;;;;;;;;;;5074708;28;20052;-59
2023/07/06 14:47:12;;;;;;;0.00;0.00;;;;;;;;;;5081251;28;20450;-59
2023/07/06 14:49:42;;;;;;;0.00;0.00;;;;;;;;;;5076752;28;20037;-59
2023/07/06 14:52:09;;;;;;;0.00;0.00;;;;;;;;;;5084244;28;20106;-59